Time;durP1;ratioP1;P1;durP2;ratioP2;P2;SDS_P1;SDS_P2;PMS_P1;PMS_P2;Temp;Humidity;BMP_temperature;BMP_pressure;BME280_temperature;BME280_humidity;BME280_pressure;Samples;Min_cycle;Max_cycle;Signal;HPM_P1;HPM_P2
2023/06/17 00:02:05;;;;;;;6.18;5.60;;;21.10;99.90;;;;;;5071133;28;20047;-59
2023/06/17 00:04:31;;;;;;;6.32;5.43;;;21.00;99.90;;;;;;5071344;28;20477;-59
2023/06/17 00:06:56;;;;;;;5.90;5.28;;;21.00;99.90;;;;;;5071156;28;20024;-59
2023/06/17 00:09:22;;;;;;;6.60;5.15;;;21.00;99.90;;;;;;5071271;28;20056;-59
2023/06/17 00:11:48;;;;;;;6.00;5.50;;;21.00;99.90;;;;;;5070883;28;20028;-59
2023/06/17 00:14:16;;;;;;;6.40;5.28;;;20.90;99.90;;;;;;5071039;28;20032;-59
2023/06/17 00:16:45;;;;;;;5.20;4.80;;;20.90;99.90;;;;;;5071443;28;20090;-59
2023/06/17 00:19:16;;;;;;;5.78;5.28;;;20.80;99.90;;;;;;5071106;28;20035;-58
2023/06/17 00:21:49;;;;;;;6.53;5.53;;;21.00;99.90;;;;;;5071101;28;20020;-59
2023/06/17 00:24:20;;;;;;;5.90;5.25;;;21.20;99.90;;;;;;5070839;28;20049;-59
2023/06/17 00:26:47;;;;;;;5.72;5.22;;;21.20;99.90;;;;;;5070814;28;20029;-59
2023/06/17 00:29:13;;;;;;;8.20;5.15;;;21.30;99.90;;;;;;5071264;28;20488;-58
2023/06/17 00:31:38;;;;;;;6.70;5.20;;;21.30;99.90;;;;;;5070519;28;20062;-59
2023/06/17 00:34:04;;;;;;;5.88;5.38;;;21.30;99.90;;;;;;5071326;28;20020;-58
2023/06/17 00:36:30;;;;;;;5.47;4.90;;;21.40;99.90;;;;;;5071012;28;20032;-59
2023/06/17 00:38:55;;;;;;;6.05;5.03;;;21.30;99.90;;;;;;5070859;28;20424;-58
2023/06/17 00:41:21;;;;;;;5.85;5.30;;;21.30;99.90;;;;;;5070556;28;20131;-59
2023/06/17 00:43:47;;;;;;;5.43;4.93;;;21.30;99.90;;;;;;5070938;28;20039;-59
2023/06/17 00:46:39;;;;;;;6.72;5.30;;;21.30;99.90;;;;;;5071321;28;20044;-59
2023/06/17 00:49:09;;;;;;;5.90;5.22;;;21.40;99.90;;;;;;5070020;28;20048;-58
2023/06/17 00:51:36;;;;;;;6.97;5.30;;;21.20;99.90;;;;;;5070313;28;20017;-58
2023/06/17 00:54:02;;;;;;;5.68;5.10;;;21.20;99.90;;;;;;5070878;28;20076;-59
2023/06/17 00:56:31;;;;;;;6.03;5.43;;;21.10;99.90;;;;;;5070726;28;20637;-58
2023/06/17 00:58:57;;;;;;;5.68;5.18;;;20.90;99.90;;;;;;5070768;28;20519;-59
2023/06/17 01:01:26;;;;;;;7.25;5.60;;;20.80;99.90;;;;;;5071512;28;20111;-59
2023/06/17 01:03:56;;;;;;;6.30;5.70;;;20.60;99.90;;;;;;5074505;28;20029;-59
2023/06/17 01:06:45;;;;;;;6.20;5.70;;;20.50;99.90;;;;;;5074393;28;20074;-59
2023/06/17 01:09:15;;;;;;;5.72;5.22;;;20.40;99.90;;;;;;5074097;28;20024;-59
2023/06/17 01:11:43;;;;;;;6.10;5.50;;;20.40;99.90;;;;;;5074420;28;20052;-59
2023/06/17 01:14:10;;;;;;;5.90;5.40;;;20.40;99.90;;;;;;5074480;28;20078;-59
2023/06/17 01:16:42;;;;;;;6.13;5.63;;;20.30;99.90;;;;;;5074747;28;20050;-58
2023/06/17 01:19:20;;;;;;;6.50;5.90;;;20.30;99.90;;;;;;5074457;28;20031;-58
2023/06/17 01:21:51;;;;;;;6.65;5.88;;;20.30;99.90;;;;;;5074079;28;20100;-58
2023/06/17 01:24:28;;;;;;;6.13;5.63;;;20.20;99.90;;;;;;5073732;28;20420;-59
2023/06/17 01:26:57;;;;;;;6.40;5.80;;;20.20;99.90;;;;;;5074157;28;20029;-59
2023/06/17 01:29:23;;;;;;;6.55;5.95;;;20.20;99.90;;;;;;5074370;28;20254;-59
2023/06/17 01:32:15;;;;;;;8.00;6.10;;;20.10;99.90;;;;;;5074216;28;20028;-59
2023/06/17 01:35:00;;;;;;;6.28;5.68;;;20.20;99.90;;;;;;5072258;28;20116;-59
2023/06/17 01:37:48;;;;;;;6.15;5.55;;;20.30;99.90;;;;;;5073644;28;20078;-59
2023/06/17 01:40:17;;;;;;;6.32;5.70;;;20.50;99.90;;;;;;5073476;28;20499;-59
2023/06/17 01:42:48;;;;;;;6.00;5.50;;;20.60;99.90;;;;;;5073720;28;20032;-59
2023/06/17 01:45:14;;;;;;;5.90;5.40;;;20.50;99.90;;;;;;5073826;28;20278;-59
2023/06/17 01:47:41;;;;;;;6.25;5.65;;;20.60;99.90;;;;;;5073628;28;20052;-59
2023/06/17 01:50:07;;;;;;;6.30;5.70;;;20.80;99.90;;;;;;5073854;28;20552;-58
2023/06/17 01:52:33;;;;;;;5.97;5.50;;;20.70;99.90;;;;;;5073478;28;20381;-59
2023/06/17 01:55:00;;;;;;;6.70;5.80;;;20.70;99.90;;;;;;5073583;28;20025;-59
2023/06/17 01:57:26;;;;;;;5.90;5.43;;;20.80;99.90;;;;;;5073665;28;20078;-59
2023/06/17 01:59:56;;;;;;;6.47;5.78;;;20.80;99.90;;;;;;5073441;28;20039;-59
2023/06/17 02:02:22;;;;;;;7.32;5.75;;;20.80;99.90;;;;;;5073210;28;20416;-58
2023/06/17 02:04:49;;;;;;;6.50;5.75;;;20.70;99.90;;;;;;5073304;28;20504;-59
2023/06/17 02:07:18;;;;;;;6.00;5.40;;;20.60;99.90;;;;;;5073080;28;20082;-59
2023/06/17 02:09:45;;;;;;;6.43;5.82;;;20.40;99.90;;;;;;5073199;28;20029;-59
2023/06/17 02:12:11;;;;;;;7.10;6.22;;;20.40;99.90;;;;;;5071754;28;20030;-59
2023/06/17 02:14:37;;;;;;;6.63;6.00;;;20.30;99.90;;;;;;5073209;28;20064;-59
2023/06/17 02:17:04;;;;;;;6.97;6.28;;;20.20;99.90;;;;;;5073141;28;20028;-58
2023/06/17 02:19:31;;;;;;;7.22;5.88;;;20.20;99.90;;;;;;5073129;28;20032;-58
2023/06/17 02:21:58;;;;;;;6.68;6.03;;;20.10;99.90;;;;;;5072672;28;20112;-59
2023/06/17 02:24:23;;;;;;;6.57;5.97;;;20.10;99.90;;;;;;5073007;28;20424;-59
2023/06/17 02:26:50;;;;;;;7.13;6.00;;;20.00;99.90;;;;;;5073469;28;20028;-59
2023/06/17 02:29:16;;;;;;;6.93;6.22;;;19.90;99.90;;;;;;5072969;28;20040;-59
2023/06/17 02:31:42;;;;;;;7.00;6.30;;;19.90;99.90;;;;;;5072824;28;20021;-58
2023/06/17 02:34:09;;;;;;;7.20;6.47;;;19.90;99.90;;;;;;5072775;28;20420;-59
2023/06/17 02:36:37;;;;;;;6.90;6.30;;;19.90;99.90;;;;;;5072670;28;20107;-58
2023/06/17 02:39:03;;;;;;;7.80;7.05;;;19.90;99.90;;;;;;5073096;28;20121;-59
2023/06/17 02:41:28;;;;;;;6.40;5.90;;;19.90;99.90;;;;;;5072745;28;20028;-58
2023/06/17 02:43:54;;;;;;;6.57;6.05;;;19.90;99.90;;;;;;5072719;28;20024;-58
2023/06/17 02:46:20;;;;;;;7.70;6.75;;;19.80;99.90;;;;;;5072977;28;20048;-58
2023/06/17 02:48:46;;;;;;;7.13;6.53;;;19.80;99.90;;;;;;5072454;28;20028;-59
2023/06/17 02:51:12;;;;;;;6.78;6.18;;;19.80;99.90;;;;;;5072516;28;20467;-58
2023/06/17 02:53:37;;;;;;;7.10;6.32;;;20.00;99.90;;;;;;5072472;28;20516;-59
2023/06/17 02:56:03;;;;;;;6.30;5.70;;;20.10;99.90;;;;;;5072538;28;20111;-59
2023/06/17 02:58:29;;;;;;;6.55;5.95;;;20.20;99.90;;;;;;5072519;28;20059;-58
2023/06/17 03:00:54;;;;;;;6.25;5.63;;;20.30;99.90;;;;;;5072502;28;20199;-59
2023/06/17 03:03:33;;;;;;;6.63;6.03;;;20.30;99.90;;;;;;5072259;28;20024;-59
2023/06/17 03:06:01;;;;;;;7.25;5.90;;;20.30;99.90;;;;;;5071913;28;20028;-58
2023/06/17 03:08:38;;;;;;;7.35;5.93;;;20.30;99.90;;;;;;5072596;28;20036;-59
2023/06/17 03:11:04;;;;;;;6.68;5.63;;;20.40;99.90;;;;;;5072340;28;20381;-58
2023/06/17 03:13:29;;;;;;;6.60;5.90;;;20.40;99.90;;;;;;5072201;28;20028;-58
2023/06/17 03:15:58;;;;;;;7.78;5.90;;;20.30;99.90;;;;;;5072126;28;20028;-59
2023/06/17 03:18:24;;;;;;;6.40;5.70;;;20.30;99.90;;;;;;5072000;28;20066;-59
2023/06/17 03:20:51;;;;;;;6.82;6.05;;;20.20;99.90;;;;;;5071626;28;20021;-59
2023/06/17 03:23:17;;;;;;;6.95;6.30;;;20.10;99.90;;;;;;5071933;28;20017;-59
2023/06/17 03:25:44;;;;;;;6.70;6.00;;;20.00;99.90;;;;;;5071202;28;20542;-59
2023/06/17 03:28:10;;;;;;;6.75;6.10;;;19.90;99.90;;;;;;5071746;28;20021;-59
2023/06/17 03:30:40;;;;;;;6.53;5.93;;;19.80;99.90;;;;;;5071905;28;20040;-59
2023/06/17 03:33:05;;;;;;;7.15;6.45;;;19.70;99.90;;;;;;5071863;28;20024;-59
2023/06/17 03:35:33;;;;;;;6.70;6.10;;;19.60;99.90;;;;;;5071381;28;20033;-59
2023/06/17 03:37:59;;;;;;;6.82;6.22;;;19.50;99.90;;;;;;5071824;28;20110;-58
2023/06/17 03:40:24;;;;;;;9.20;6.60;;;19.50;99.90;;;;;;5071558;28;20509;-59
2023/06/17 03:42:50;;;;;;;7.70;6.93;;;19.40;99.90;;;;;;5071552;28;20507;-59
2023/06/17 03:45:16;;;;;;;9.15;7.97;;;19.40;99.90;;;;;;5071889;28;20056;-59
2023/06/17 03:47:41;;;;;;;8.95;8.20;;;19.30;99.90;;;;;;5071406;28;20013;-59
2023/06/17 03:50:08;;;;;;;10.27;9.27;;;19.30;99.90;;;;;;5071197;28;20043;-59
2023/06/17 03:52:33;;;;;;;9.75;8.95;;;19.30;99.90;;;;;;5071361;28;20029;-59
2023/06/17 03:54:59;;;;;;;11.88;10.50;;;19.20;99.90;;;;;;5071356;28;20035;-59
2023/06/17 03:57:25;;;;;;;12.25;11.07;;;19.20;99.90;;;;;;5070296;28;20020;-59
2023/06/17 03:59:51;;;;;;;11.70;10.60;;;19.20;99.90;;;;;;5071289;28;20020;-59
2023/06/17 04:02:17;;;;;;;11.88;10.88;;;19.10;99.90;;;;;;5071177;28;20431;-59
2023/06/17 04:04:42;;;;;;;12.52;11.52;;;19.10;99.90;;;;;;5071149;28;20119;-59
2023/06/17 04:07:08;;;;;;;12.98;11.88;;;19.10;99.90;;;;;;5071288;28;20039;-58
2023/06/17 04:09:34;;;;;;;12.02;11.02;;;19.20;99.90;;;;;;5071169;28;20508;-59
2023/06/17 04:12:01;;;;;;;12.23;11.02;;;19.30;99.90;;;;;;5071134;28;20100;-58
2023/06/17 04:14:26;;;;;;;11.38;10.45;;;19.40;99.90;;;;;;5071137;28;20107;-59
2023/06/17 04:16:53;;;;;;;12.30;11.07;;;19.40;99.90;;;;;;5071282;28;20488;-59
2023/06/17 04:19:19;;;;;;;11.82;10.70;;;19.40;99.90;;;;;;5071273;28;20036;-58
2023/06/17 04:21:45;;;;;;;12.52;10.63;;;19.40;99.90;;;;;;5071142;28;20587;-59
2023/06/17 04:24:11;;;;;;;11.32;10.32;;;19.40;99.90;;;;;;5070973;28;20083;-59
2023/06/17 04:26:37;;;;;;;10.80;9.80;;;19.40;99.90;;;;;;5071628;28;20074;-59
2023/06/17 04:29:03;;;;;;;9.82;9.02;;;19.40;99.90;;;;;;5070569;28;20029;-59
2023/06/17 04:31:29;;;;;;;9.05;8.30;;;19.40;99.90;;;;;;5070724;28;20029;-59
2023/06/17 04:33:54;;;;;;;9.70;8.73;;;19.50;99.90;;;;;;5071329;28;20103;-59
2023/06/17 04:36:21;;;;;;;9.73;8.93;;;19.30;99.90;;;;;;5071533;28;20029;-59
2023/06/17 04:38:49;;;;;;;10.00;8.98;;;19.20;99.90;;;;;;5075070;28;20397;-59
2023/06/17 04:41:16;;;;;;;9.23;8.43;;;19.10;99.90;;;;;;5075167;28;20464;-59
2023/06/17 04:43:45;;;;;;;9.02;8.23;;;19.00;99.90;;;;;;5074886;28;20017;-58
2023/06/17 04:46:12;;;;;;;9.32;8.45;;;18.90;99.90;;;;;;5074676;28;20025;-59
2023/06/17 04:48:38;;;;;;;9.23;8.30;;;18.90;99.90;;;;;;5074794;28;20434;-59
2023/06/17 04:51:05;;;;;;;9.65;8.77;;;18.90;99.90;;;;;;5074736;28;20461;-59
2023/06/17 04:53:31;;;;;;;9.70;8.85;;;18.90;99.90;;;;;;5074819;28;20029;-59
2023/06/17 04:55:57;;;;;;;9.45;8.65;;;18.90;99.90;;;;;;5075053;28;20554;-59
2023/06/17 04:58:23;;;;;;;9.40;8.60;;;18.90;99.90;;;;;;5074598;28;20028;-59
2023/06/17 05:00:48;;;;;;;9.25;8.35;;;18.80;99.90;;;;;;5074311;28;20165;-59
2023/06/17 05:03:14;;;;;;;9.35;8.68;;;18.80;99.90;;;;;;5074429;28;20024;-59
2023/06/17 05:05:40;;;;;;;8.93;8.13;;;18.80;99.90;;;;;;5074535;28;20528;-58
2023/06/17 05:08:05;;;;;;;8.05;7.43;;;18.80;99.90;;;;;;5074900;28;20017;-58
2023/06/17 05:10:31;;;;;;;9.00;8.30;;;18.90;99.90;;;;;;5074436;28;20111;-59
2023/06/17 05:12:57;;;;;;;9.05;8.25;;;18.90;99.90;;;;;;5074245;28;20031;-59
2023/06/17 05:15:22;;;;;;;9.02;8.32;;;18.90;99.90;;;;;;5074255;28;20516;-59
2023/06/17 05:17:48;;;;;;;8.77;8.07;;;18.80;99.90;;;;;;5074418;28;20043;-59
2023/06/17 05:20:14;;;;;;;9.18;8.27;;;19.00;99.90;;;;;;5074307;28;20035;-59
2023/06/17 05:22:40;;;;;;;8.93;8.10;;;19.10;99.90;;;;;;5074258;28;20021;-59
2023/06/17 05:25:06;;;;;;;9.02;8.13;;;19.30;99.90;;;;;;5074267;28;20056;-59
2023/06/17 05:27:32;;;;;;;8.93;8.13;;;19.30;99.90;;;;;;5074021;28;20100;-58
2023/06/17 05:29:58;;;;;;;10.23;8.13;;;19.40;99.90;;;;;;5073884;28;20044;-59
2023/06/17 05:32:24;;;;;;;9.05;8.32;;;19.60;99.90;;;;;;5074017;28;20542;-59
2023/06/17 05:34:50;;;;;;;8.60;7.80;;;19.60;99.90;;;;;;5072645;28;20024;-59
2023/06/17 05:37:16;;;;;;;8.43;7.63;;;19.70;99.90;;;;;;5074095;28;20378;-59
2023/06/17 05:39:42;;;;;;;8.63;7.90;;;19.60;99.90;;;;;;5073809;28;20192;-59
2023/06/17 05:42:07;;;;;;;9.40;8.43;;;19.70;99.90;;;;;;5073944;28;20020;-59
2023/06/17 05:44:33;;;;;;;9.13;8.32;;;19.90;99.90;;;;;;5073500;28;20040;-59
2023/06/17 05:46:58;;;;;;;8.85;7.95;;;19.90;99.90;;;;;;5073391;28;20048;-58
2023/06/17 05:49:24;;;;;;;9.20;8.40;;;19.90;99.90;;;;;;5073665;28;20102;-59
2023/06/17 05:51:50;;;;;;;9.70;8.32;;;19.70;99.90;;;;;;5074073;28;20020;-59
2023/06/17 05:54:15;;;;;;;9.88;8.68;;;19.70;99.90;;;;;;5073597;28;20036;-58
2023/06/17 05:56:41;;;;;;;10.23;9.32;;;19.60;99.90;;;;;;5073494;28;20021;-59
2023/06/17 05:59:07;;;;;;;10.65;9.65;;;19.60;99.90;;;;;;5073687;28;20026;-59
2023/06/17 06:01:32;;;;;;;11.27;10.18;;;19.60;99.90;;;;;;5073112;28;20032;-59
2023/06/17 06:03:58;;;;;;;10.88;9.88;;;19.70;99.90;;;;;;5073786;28;20032;-59
2023/06/17 06:06:24;;;;;;;10.00;9.10;;;19.80;99.90;;;;;;5073465;28;20480;-59
2023/06/17 06:08:50;;;;;;;9.85;8.95;;;19.80;99.90;;;;;;5073397;28;20029;-59
2023/06/17 06:11:16;;;;;;;9.57;8.82;;;19.90;99.90;;;;;;5073684;28;20044;-58
2023/06/17 06:13:42;;;;;;;9.20;8.48;;;19.90;99.90;;;;;;5073111;28;20055;-59
2023/06/17 06:16:07;;;;;;;9.00;8.30;;;20.00;99.90;;;;;;5073357;28;20095;-59
2023/06/17 06:18:33;;;;;;;8.98;8.23;;;20.00;99.90;;;;;;5073148;28;20067;-59
2023/06/17 06:20:59;;;;;;;9.52;8.82;;;20.10;99.90;;;;;;5073527;28;20021;-58
2023/06/17 06:23:25;;;;;;;9.50;8.60;;;20.20;99.90;;;;;;5073196;28;20514;-59
2023/06/17 06:25:51;;;;;;;9.90;9.10;;;20.20;99.90;;;;;;5072817;28;20048;-59
2023/06/17 06:28:16;;;;;;;9.82;9.02;;;20.30;99.90;;;;;;5073208;28;20059;-59
2023/06/17 06:30:42;;;;;;;10.38;9.30;;;20.40;99.90;;;;;;5072943;28;20481;-59
2023/06/17 06:33:08;;;;;;;10.02;9.20;;;20.60;99.90;;;;;;5072961;28;20020;-58
2023/06/17 06:35:33;;;;;;;9.93;9.02;;;20.90;99.90;;;;;;5072789;28;20477;-59
2023/06/17 06:37:59;;;;;;;9.93;8.93;;;21.10;99.90;;;;;;5073215;28;20453;-59
2023/06/17 06:40:24;;;;;;;9.75;8.95;;;21.20;99.90;;;;;;5072666;28;20473;-59
2023/06/17 06:42:50;;;;;;;10.00;9.13;;;21.30;99.90;;;;;;5072440;28;20035;-59
2023/06/17 06:45:16;;;;;;;10.40;9.20;;;21.50;99.90;;;;;;5073066;28;20012;-59
2023/06/17 06:47:42;;;;;;;9.98;9.05;;;21.70;99.90;;;;;;5072874;28;20101;-59
2023/06/17 06:50:08;;;;;;;9.85;8.95;;;21.80;99.90;;;;;;5072129;28;20083;-58
2023/06/17 06:52:33;;;;;;;9.85;9.15;;;21.90;99.90;;;;;;5072911;28;20040;-58
2023/06/17 06:54:59;;;;;;;10.25;9.35;;;21.90;99.90;;;;;;5072448;28;20082;-59
2023/06/17 06:57:24;;;;;;;10.02;9.13;;;21.90;99.90;;;;;;5072212;28;20104;-59
2023/06/17 06:59:50;;;;;;;9.55;8.73;;;22.00;99.90;;;;;;5071564;28;20024;-58
2023/06/17 07:02:16;;;;;;;10.13;9.32;;;22.00;99.90;;;;;;5071169;28;20373;-58
2023/06/17 07:04:42;;;;;;;9.93;9.13;;;22.00;99.90;;;;;;5072267;28;20070;-59
2023/06/17 07:07:07;;;;;;;9.90;9.10;;;22.00;99.90;;;;;;5072380;28;20020;-59
2023/06/17 07:09:33;;;;;;;10.00;8.90;;;21.90;99.90;;;;;;5071967;28;20037;-59
2023/06/17 07:11:59;;;;;;;10.40;9.50;;;21.90;99.90;;;;;;5071883;28;20024;-59
2023/06/17 07:14:24;;;;;;;10.38;9.38;;;21.90;99.90;;;;;;5072466;28;20025;-59
2023/06/17 07:16:50;;;;;;;10.45;9.45;;;21.90;99.90;;;;;;5071869;28;20040;-59
2023/06/17 07:19:16;;;;;;;10.10;9.20;;;22.00;99.90;;;;;;5072367;28;20022;-59
2023/06/17 07:21:41;;;;;;;10.32;9.50;;;22.00;99.90;;;;;;5071897;28;20024;-59
2023/06/17 07:24:07;;;;;;;10.27;9.38;;;22.10;99.90;;;;;;5070402;28;20055;-58
2023/06/17 07:26:32;;;;;;;9.75;8.98;;;22.10;99.90;;;;;;5071975;28;20112;-59
2023/06/17 07:29:01;;;;;;;9.95;9.13;;;22.30;99.90;;;;;;5071803;28;20036;-59
2023/06/17 07:31:28;;;;;;;10.60;9.57;;;22.40;99.90;;;;;;5071907;28;20024;-59
2023/06/17 07:33:54;;;;;;;9.60;8.80;;;22.60;99.90;;;;;;5072080;28;20028;-59
2023/06/17 07:36:20;;;;;;;9.57;8.68;;;22.90;99.90;;;;;;5071695;28;20395;-59
2023/06/17 07:38:45;;;;;;;9.27;8.43;;;22.90;99.90;;;;;;5071584;28;20021;-59
2023/06/17 07:41:11;;;;;;;9.02;8.30;;;23.00;99.90;;;;;;5071175;28;20028;-59
2023/06/17 07:43:37;;;;;;;9.13;8.40;;;23.10;99.90;;;;;;5071584;28;20107;-59
2023/06/17 07:46:02;;;;;;;9.13;8.30;;;23.10;99.90;;;;;;5072001;28;20059;-59
2023/06/17 07:48:30;;;;;;;9.15;8.35;;;23.30;99.90;;;;;;5071389;28;20577;-58
2023/06/17 07:50:55;;;;;;;9.10;8.40;;;23.40;99.90;;;;;;5071428;28;20052;-59
2023/06/17 07:53:21;;;;;;;9.48;8.38;;;23.70;99.90;;;;;;5071640;28;20469;-59
2023/06/17 07:55:47;;;;;;;9.65;8.52;;;23.70;99.90;;;;;;5071106;28;20553;-59
2023/06/17 07:58:13;;;;;;;9.38;8.57;;;24.00;99.90;;;;;;5071460;28;20033;-59
2023/06/17 08:00:39;;;;;;;9.48;8.57;;;23.80;99.90;;;;;;5071408;28;20103;-58
2023/06/17 08:03:05;;;;;;;9.40;8.57;;;24.00;99.90;;;;;;5071464;28;20493;-59
2023/06/17 08:05:30;;;;;;;9.48;8.68;;;24.10;99.90;;;;;;5070208;28;20020;-59
2023/06/17 08:07:56;;;;;;;10.18;8.77;;;24.10;99.90;;;;;;5071133;28;20027;-59
2023/06/17 08:10:22;;;;;;;9.95;8.90;;;24.20;99.90;;;;;;5070997;28;20127;-59
2023/06/17 08:12:48;;;;;;;9.30;8.50;;;24.20;99.90;;;;;;5071372;28;20062;-59
2023/06/17 08:15:14;;;;;;;9.27;8.48;;;24.20;99.90;;;;;;5071111;28;20035;-59
2023/06/17 08:17:40;;;;;;;9.63;8.73;;;24.30;99.90;;;;;;5071172;28;20029;-59
2023/06/17 08:20:07;;;;;;;12.43;9.20;;;24.20;99.90;;;;;;5071658;28;20052;-59
2023/06/17 08:22:33;;;;;;;10.45;9.60;;;24.10;99.90;;;;;;5070872;28;20052;-59
2023/06/17 08:24:58;;;;;;;9.60;8.73;;;24.00;99.90;;;;;;5070822;28;20497;-59
2023/06/17 08:27:25;;;;;;;10.90;9.90;;;23.70;99.90;;;;;;5071246;28;20028;-59
2023/06/17 08:29:50;;;;;;;10.18;9.20;;;23.70;99.90;;;;;;5070859;28;20040;-59
2023/06/17 08:32:16;;;;;;;9.90;9.10;;;23.70;99.90;;;;;;5070921;28;20025;-59
2023/06/17 08:34:42;;;;;;;10.05;9.25;;;23.80;99.90;;;;;;5070922;28;20097;-59
2023/06/17 08:37:08;;;;;;;9.70;8.90;;;23.90;99.90;;;;;;5070886;28;20055;-59
2023/06/17 08:39:38;;;;;;;9.52;8.45;;;24.10;99.90;;;;;;5070769;28;20040;-59
2023/06/17 08:42:05;;;;;;;9.27;8.38;;;24.20;99.90;;;;;;5071328;28;20103;-59
2023/06/17 08:44:35;;;;;;;9.30;8.50;;;24.30;99.90;;;;;;5070959;28;20162;-59
2023/06/17 08:47:05;;;;;;;10.93;8.40;;;24.30;99.90;;;;;;5070982;28;20377;-59
2023/06/17 08:49:31;;;;;;;9.02;8.32;;;24.20;99.90;;;;;;5071201;28;20035;-59
2023/06/17 08:52:03;;;;;;;8.80;8.10;;;24.10;99.90;;;;;;5070803;28;20028;-59
2023/06/17 08:54:32;;;;;;;9.40;8.50;;;24.10;99.90;;;;;;5070454;28;20036;-59
2023/06/17 08:56:58;;;;;;;9.35;8.55;;;24.10;99.90;;;;;;5071185;28;20024;-59
2023/06/17 08:59:24;;;;;;;10.07;9.10;;;24.00;99.90;;;;;;5070878;28;20119;-59
2023/06/17 09:01:52;;;;;;;9.50;8.63;;;24.00;99.90;;;;;;5070506;28;20151;-59
2023/06/17 09:04:21;;;;;;;9.35;8.60;;;24.20;99.90;;;;;;5071165;28;20032;-59
2023/06/17 09:06:47;;;;;;;9.70;8.80;;;24.50;99.90;;;;;;5070726;28;20033;-59
2023/06/17 09:09:13;;;;;;;9.50;8.70;;;24.70;99.90;;;;;;5069804;28;20039;-59
2023/06/17 09:11:38;;;;;;;9.80;8.90;;;24.90;99.90;;;;;;5071021;28;20024;-58
2023/06/17 09:14:04;;;;;;;11.65;9.80;;;25.10;99.90;;;;;;5070636;28;20392;-58
2023/06/17 09:16:34;;;;;;;9.60;8.70;;;25.20;99.90;;;;;;5070644;28;20063;-58
2023/06/17 09:19:13;;;;;;;9.57;8.70;;;25.40;99.90;;;;;;5070395;28;20033;-57
2023/06/17 09:21:39;;;;;;;9.55;8.68;;;25.50;99.90;;;;;;5070597;28;20078;-59
2023/06/17 09:24:08;;;;;;;9.75;8.85;;;25.60;99.90;;;;;;5073420;28;20051;-59
2023/06/17 09:26:39;;;;;;;10.15;9.05;;;25.60;99.90;;;;;;5074265;28;20024;-59
2023/06/17 09:29:07;;;;;;;9.27;8.48;;;25.60;99.90;;;;;;5073834;28;20090;-59
2023/06/17 09:31:46;;;;;;;9.40;8.70;;;25.70;99.90;;;;;;5074435;28;20032;-59
2023/06/17 09:34:12;;;;;;;9.80;8.82;;;25.80;99.90;;;;;;5073975;28;20044;-59
2023/06/17 09:36:40;;;;;;;9.10;8.30;;;26.10;99.90;;;;;;5073619;28;20064;-59
2023/06/17 09:39:08;;;;;;;9.90;8.90;;;26.10;99.90;;;;;;5074083;28;20016;-60
2023/06/17 09:41:38;;;;;;;9.80;8.38;;;26.00;99.90;;;;;;5073778;28;20543;-59
2023/06/17 09:44:05;;;;;;;9.43;8.60;;;25.90;99.90;;;;;;5073883;28;20107;-59
2023/06/17 09:46:37;;;;;;;9.18;8.30;;;25.90;99.90;;;;;;5073798;28;20044;-59
2023/06/17 09:49:11;;;;;;;8.45;7.85;;;25.90;99.90;;;;;;5073758;28;20043;-59
2023/06/17 09:51:38;;;;;;;8.25;7.55;;;26.00;99.90;;;;;;5073737;28;20028;-59
2023/06/17 09:54:05;;;;;;;9.60;7.55;;;26.00;99.90;;;;;;5073646;28;20028;-59
2023/06/17 09:56:32;;;;;;;8.10;7.50;;;26.00;99.90;;;;;;5073612;28;20028;-60
2023/06/17 09:58:58;;;;;;;8.13;7.43;;;26.00;99.90;;;;;;5073579;28;20032;-59
2023/06/17 10:01:30;;;;;;;7.97;7.20;;;26.10;99.90;;;;;;5073417;28;20115;-59
2023/06/17 10:04:02;;;;;;;8.35;7.55;;;26.10;99.90;;;;;;5073880;28;20024;-58
2023/06/17 10:06:35;;;;;;;7.53;6.82;;;26.30;99.90;;;;;;5073083;28;20039;-59
2023/06/17 10:09:06;;;;;;;8.13;7.43;;;26.50;99.90;;;;;;5073480;28;20040;-59
2023/06/17 10:11:34;;;;;;;7.85;7.03;;;26.50;99.90;;;;;;5073474;28;20039;-59
2023/06/17 10:14:05;;;;;;;8.32;7.30;;;26.70;99.90;;;;;;5073454;28;20104;-59
2023/06/17 10:16:34;;;;;;;7.50;6.90;;;26.80;99.90;;;;;;5073449;28;20108;-59
2023/06/17 10:19:05;;;;;;;7.60;7.00;;;27.00;99.90;;;;;;5073143;28;20018;-59
2023/06/17 10:21:33;;;;;;;7.18;6.57;;;27.20;99.90;;;;;;5073298;28;20056;-59
2023/06/17 10:24:01;;;;;;;7.35;6.72;;;27.40;99.90;;;;;;5071475;28;20409;-59
2023/06/17 10:26:31;;;;;;;7.90;7.13;;;27.60;99.90;;;;;;5073447;28;20088;-59
2023/06/17 10:29:01;;;;;;;7.38;6.25;;;27.90;99.90;;;;;;5073098;28;20509;-59
2023/06/17 10:31:31;;;;;;;7.65;6.85;;;28.00;99.90;;;;;;5073054;28;20035;-59
2023/06/17 10:34:01;;;;;;;7.00;6.40;;;28.30;99.90;;;;;;5073055;28;20020;-59
2023/06/17 10:36:27;;;;;;;7.82;6.35;;;28.40;99.90;;;;;;5072964;28;20400;-59
2023/06/17 10:38:55;;;;;;;7.05;6.25;;;28.40;99.90;;;;;;5073230;28;20028;-59
2023/06/17 10:41:21;;;;;;;7.53;6.03;;;28.50;99.90;;;;;;5072885;28;20033;-59
2023/06/17 10:43:49;;;;;;;6.90;6.30;;;28.50;99.90;;;;;;5072932;28;20029;-59
2023/06/17 10:46:24;;;;;;;7.30;6.20;;;28.70;99.90;;;;;;5072603;28;20029;-59
2023/06/17 10:48:50;;;;;;;6.78;6.18;;;28.70;99.90;;;;;;5072661;28;20016;-59
2023/06/17 10:51:17;;;;;;;7.47;6.38;;;28.80;99.90;;;;;;5072566;28;20412;-59
2023/06/17 10:53:48;;;;;;;6.63;6.00;;;28.80;99.90;;;;;;5072479;28;20480;-58
2023/06/17 10:56:15;;;;;;;7.50;6.80;;;29.00;99.90;;;;;;5072614;28;20107;-59
2023/06/17 10:58:46;;;;;;;7.07;6.50;;;29.00;99.90;;;;;;5072579;28;20020;-59
2023/06/17 11:01:12;;;;;;;6.55;6.00;;;29.00;99.90;;;;;;5072660;28;20033;-59
2023/06/17 11:03:40;;;;;;;6.55;5.95;;;28.80;99.90;;;;;;5071872;28;20407;-59
2023/06/17 11:06:08;;;;;;;6.05;5.55;;;28.70;99.90;;;;;;5072430;28;20028;-59
2023/06/17 11:08:36;;;;;;;5.95;5.45;;;28.70;99.90;;;;;;5072168;28;20099;-59
2023/06/17 11:11:16;;;;;;;5.97;5.47;;;28.80;99.90;;;;;;5072105;28;20036;-59
2023/06/17 11:13:47;;;;;;;6.63;5.82;;;28.90;99.90;;;;;;5072114;28;20028;-59
2023/06/17 11:16:12;;;;;;;7.20;6.22;;;28.90;99.90;;;;;;5072554;28;20029;-59
2023/06/17 11:18:43;;;;;;;6.45;5.95;;;28.80;99.90;;;;;;5071807;28;20017;-59
2023/06/17 11:21:09;;;;;;;7.05;6.03;;;28.80;99.90;;;;;;5071881;28;20059;-60
2023/06/17 11:23:38;;;;;;;6.80;6.20;;;29.00;99.90;;;;;;5072260;28;20029;-59
2023/06/17 11:26:05;;;;;;;6.80;5.65;;;29.10;99.90;;;;;;5072147;28;20021;-59
2023/06/17 11:28:31;;;;;;;8.63;6.40;;;29.10;99.90;;;;;;5071730;28;20077;-60
2023/06/17 11:30:57;;;;;;;6.97;6.38;;;29.10;99.90;;;;;;5071937;28;20060;-60
2023/06/17 11:33:24;;;;;;;6.70;6.00;;;29.20;99.90;;;;;;5071434;28;20048;-59
2023/06/17 11:35:53;;;;;;;6.95;6.25;;;29.30;99.90;;;;;;5072027;28;20039;-59
2023/06/17 11:38:21;;;;;;;7.00;6.47;;;29.30;99.90;;;;;;5071596;28;20012;-59
2023/06/17 11:40:46;;;;;;;7.22;6.65;;;29.50;99.90;;;;;;5071861;28;20024;-59
2023/06/17 11:43:12;;;;;;;7.40;6.80;;;29.60;99.90;;;;;;5071682;28;20028;-59
2023/06/17 11:45:38;;;;;;;7.53;6.80;;;29.70;99.90;;;;;;5070963;28;20397;-59
2023/06/17 11:48:07;;;;;;;7.72;6.90;;;30.00;99.90;;;;;;5071271;28;20481;-59
2023/06/17 11:50:36;;;;;;;8.52;7.07;;;30.00;99.90;;;;;;5071441;28;20036;-59
2023/06/17 11:53:02;;;;;;;7.65;6.90;;;30.30;99.90;;;;;;5071883;28;20409;-59
2023/06/17 11:55:32;;;;;;;7.72;7.07;;;30.60;99.90;;;;;;5071503;28;20086;-59
2023/06/17 11:58:02;;;;;;;7.57;6.97;;;30.50;99.90;;;;;;5071457;28;20020;-59
2023/06/17 12:00:29;;;;;;;7.75;7.00;;;30.50;99.90;;;;;;5071202;28;20032;-59
2023/06/17 12:02:56;;;;;;;7.60;7.00;;;30.50;99.90;;;;;;5070806;28;20067;-59
2023/06/17 12:05:29;;;;;;;8.55;7.70;;;30.50;99.90;;;;;;5071552;28;20032;-59
2023/06/17 12:08:01;;;;;;;11.52;10.50;;;30.30;99.90;;;;;;5071350;28;20066;-59
2023/06/17 12:10:26;;;;;;;14.07;12.68;;;29.60;99.90;;;;;;5071243;28;20036;-60
2023/06/17 12:12:58;;;;;;;15.30;13.70;;;29.10;99.90;;;;;;5071515;28;20024;-59
2023/06/17 12:15:28;;;;;;;13.68;12.63;;;28.70;99.90;;;;;;5071101;28;20029;-58
2023/06/17 12:17:54;;;;;;;14.85;13.55;;;28.50;99.90;;;;;;5071178;28;20543;-59
2023/06/17 12:20:21;;;;;;;15.23;13.80;;;27.90;99.90;;;;;;5071209;28;20052;-57
2023/06/17 12:22:48;;;;;;;17.08;15.32;;;27.50;99.90;;;;;;5071059;28;20485;-59
2023/06/17 12:25:14;;;;;;;16.80;15.30;;;27.30;99.90;;;;;;5070995;28;20106;-58
2023/06/17 12:27:41;;;;;;;17.67;15.75;;;27.20;99.90;;;;;;5071111;28;20519;-59
2023/06/17 12:30:08;;;;;;;17.25;15.60;;;26.90;99.90;;;;;;5069845;28;20404;-58
2023/06/17 12:32:35;;;;;;;16.48;15.05;;;27.00;99.90;;;;;;5070821;28;20032;-59
2023/06/17 12:35:01;;;;;;;17.38;15.65;;;27.10;99.90;;;;;;5070600;28;20031;-59
2023/06/17 12:37:28;;;;;;;17.58;15.98;;;27.20;99.90;;;;;;5070994;28;20029;-59
2023/06/17 12:39:59;;;;;;;17.75;16.05;;;27.30;99.90;;;;;;5071147;28;20029;-59
2023/06/17 12:42:25;;;;;;;17.45;15.85;;;27.30;99.90;;;;;;5071003;28;20024;-59
2023/06/17 12:44:51;;;;;;;17.73;16.02;;;27.60;99.90;;;;;;5070639;28;20028;-59